Austinville, IA

7:41 PM CST on February 25, 2017 (GMT -0600)
Almost Fern | | Change Station

Elev 997 ft 42.53 °N, 92.81 °W | Updated 24 seconds ago

Overcast
Overcast
20.4 °F
Feels Like 20 °F
N
2.0
Wind Variable Wind from South

Today
High -- | Low -- °F
--% Chance of Precip.
Yesterday
High -- | Low -- °F
Precip. -- in
Pressure 29.98 in
Visibility 10.0 miles
Clouds Scattered Clouds 8000 ft
Mostly Cloudy 10000 ft
Windchill 20 °F
Dew Point 17 °F
Humidity 88%
Rainfall 0.11 in
Snow Depth Not available.
6:53 AM 5:56 PM
Waning Crescent, 0% visible
METAR KIFA 260135Z AUTO 17007KT 10SM SCT080 BKN100 M06/M08 A2998 RMK AO2 T10591084
Pressure 29.98 in
Visibility 10.0 miles
Clouds Scattered Clouds 8000 ft
Mostly Cloudy 10000 ft
Windchill 20 °F
Dew Point 17 °F
Humidity 88%
Rainfall 0.11 in
Snow Depth Not available.
6:53 AM 5:56 PM
Waning Crescent, 0% visible
METAR KIFA 260135Z AUTO 17007KT 10SM SCT080 BKN100 M06/M08 A2998 RMK AO2 T10591084

Get Your Daily Forecast Email!

Thanks for signing up!

Be on the lookout for a verification email in your inbox.

You'll start receiving the daily forecast at 8 AM.

×

10-Day Weather Forecast

Almanac

Astronomy

Feb. 25, 2017 Rise Set
Actual Time
Civil Twilight
Nautical Twilight
Astronomical Twilight
Moon
Length of Visible Light
Length of Day
Tomorrow will be .
, % of the Moon is Illuminated

Today's Extremes

State Highs State Lows

Community

WunderPhotos

Upload Photos

1,962,540 photos uploaded!

WunderBlog® & News

Nearby

Air Quality

  Air Quality AQ Index Pollutant
Not available.

Snow Depth

Station Depth Elevation

Earthquake Activity

City Distance Mag. Time & Date
Minimum magnitude displayed is 2.5.

Coastal Water Temperatures

Place Temperature

Stations

Nearby Weather Stations

Station Location Temp. Windchill Dew Point Humidity Wind Precip. Elev Updated Type
                   

Watches & Warnings

There are currently no watches in effect.